sensor_id;sensor_type;location;lat;lon;timestamp;P1;durP1;ratioP1;P2;durP2;ratioP2
52268;SDS011;38224;50.950;4.100;2023-07-08T00:00:50;12.60;;;5.18;;
52268;SDS011;38224;50.950;4.100;2023-07-08T00:03:16;10.90;;;5.60;;
52268;SDS011;38224;50.950;4.100;2023-07-08T00:05:42;16.02;;;5.30;;
52268;SDS011;38224;50.950;4.100;2023-07-08T00:08:11;10.35;;;5.47;;
52268;SDS011;38224;50.950;4.100;2023-07-08T00:10:37;8.80;;;5.50;;
52268;SDS011;38224;50.950;4.100;2023-07-08T00:13:02;10.35;;;5.35;;
52268;SDS011;38224;50.950;4.100;2023-07-08T00:15:29;9.60;;;5.27;;
52268;SDS011;38224;50.950;4.100;2023-07-08T00:17:55;9.85;;;5.20;;
52268;SDS011;38224;50.950;4.100;2023-07-08T00:20:22;9.07;;;5.10;;
52268;SDS011;38224;50.950;4.100;2023-07-08T00:22:48;9.85;;;5.35;;
52268;SDS011;38224;50.950;4.100;2023-07-08T00:25:15;8.48;;;5.28;;
52268;SDS011;38224;50.950;4.100;2023-07-08T00:27:40;11.07;;;5.10;;
52268;SDS011;38224;50.950;4.100;2023-07-08T00:30:48;8.32;;;4.97;;
52268;SDS011;38224;50.950;4.100;2023-07-08T00:32:55;9.10;;;5.13;;
52268;SDS011;38224;50.950;4.100;2023-07-08T00:35:21;13.40;;;5.80;;
52268;SDS011;38224;50.950;4.100;2023-07-08T00:37:47;7.78;;;4.82;;
52268;SDS011;38224;50.950;4.100;2023-07-08T00:40:21;7.78;;;5.13;;
52268;SDS011;38224;50.950;4.100;2023-07-08T00:42:47;8.68;;;4.97;;
52268;SDS011;38224;50.950;4.100;2023-07-08T00:45:15;9.23;;;5.13;;
52268;SDS011;38224;50.950;4.100;2023-07-08T00:47:43;9.23;;;5.28;;
52268;SDS011;38224;50.950;4.100;2023-07-08T00:50:08;11.30;;;5.40;;
52268;SDS011;38224;50.950;4.100;2023-07-08T00:52:36;8.45;;;5.07;;
52268;SDS011;38224;50.950;4.100;2023-07-08T00:55:03;9.40;;;5.27;;
52268;SDS011;38224;50.950;4.100;2023-07-08T00:57:30;9.43;;;5.43;;
52268;SDS011;38224;50.950;4.100;2023-07-08T01:02:22;11.13;;;5.20;;
52268;SDS011;38224;50.950;4.100;2023-07-08T01:04:53;9.73;;;5.35;;
52268;SDS011;38224;50.950;4.100;2023-07-08T01:07:20;10.48;;;5.43;;
52268;SDS011;38224;50.950;4.100;2023-07-08T01:09:47;12.43;;;5.13;;
52268;SDS011;38224;50.950;4.100;2023-07-08T01:12:14;13.70;;;5.30;;
52268;SDS011;38224;50.950;4.100;2023-07-08T01:14:41;8.65;;;5.00;;
52268;SDS011;38224;50.950;4.100;2023-07-08T01:17:07;9.68;;;5.03;;
52268;SDS011;38224;50.950;4.100;2023-07-08T01:19:32;11.50;;;5.80;;
52268;SDS011;38224;50.950;4.100;2023-07-08T01:21:59;8.18;;;5.20;;
52268;SDS011;38224;50.950;4.100;2023-07-08T01:24:24;8.50;;;5.10;;
52268;SDS011;38224;50.950;4.100;2023-07-08T01:26:50;9.88;;;5.32;;
52268;SDS011;38224;50.950;4.100;2023-07-08T01:29:15;9.20;;;4.80;;
52268;SDS011;38224;50.950;4.100;2023-07-08T01:31:41;9.07;;;5.07;;
52268;SDS011;38224;50.950;4.100;2023-07-08T01:34:08;15.05;;;5.47;;
52268;SDS011;38224;50.950;4.100;2023-07-08T01:36:38;9.50;;;5.55;;
52268;SDS011;38224;50.950;4.100;2023-07-08T01:39:05;7.35;;;5.15;;
52268;SDS011;38224;50.950;4.100;2023-07-08T01:41:30;11.68;;;5.55;;
52268;SDS011;38224;50.950;4.100;2023-07-08T01:43:55;8.50;;;4.83;;
52268;SDS011;38224;50.950;4.100;2023-07-08T01:46:22;10.67;;;5.50;;
52268;SDS011;38224;50.950;4.100;2023-07-08T01:48:50;10.90;;;5.38;;
52268;SDS011;38224;50.950;4.100;2023-07-08T01:51:16;10.73;;;5.35;;
52268;SDS011;38224;50.950;4.100;2023-07-08T01:53:42;12.63;;;5.63;;
52268;SDS011;38224;50.950;4.100;2023-07-08T01:56:08;11.63;;;5.70;;
52268;SDS011;38224;50.950;4.100;2023-07-08T01:58:33;12.88;;;5.75;;
52268;SDS011;38224;50.950;4.100;2023-07-08T02:00:59;10.95;;;5.50;;
52268;SDS011;38224;50.950;4.100;2023-07-08T02:03:25;10.27;;;5.78;;
52268;SDS011;38224;50.950;4.100;2023-07-08T02:05:51;9.32;;;5.78;;
52268;SDS011;38224;50.950;4.100;2023-07-08T02:08:16;9.80;;;6.03;;
52268;SDS011;38224;50.950;4.100;2023-07-08T02:10:42;14.02;;;5.82;;
52268;SDS011;38224;50.950;4.100;2023-07-08T02:13:07;10.40;;;5.80;;
52268;SDS011;38224;50.950;4.100;2023-07-08T02:15:32;8.27;;;5.35;;
52268;SDS011;38224;50.950;4.100;2023-07-08T02:17:58;8.98;;;5.78;;
52268;SDS011;38224;50.950;4.100;2023-07-08T02:20:23;11.90;;;5.60;;
52268;SDS011;38224;50.950;4.100;2023-07-08T02:22:48;11.05;;;6.15;;
52268;SDS011;38224;50.950;4.100;2023-07-08T02:25:14;9.93;;;6.10;;
52268;SDS011;38224;50.950;4.100;2023-07-08T02:27:39;9.70;;;5.35;;
52268;SDS011;38224;50.950;4.100;2023-07-08T02:30:05;8.95;;;5.63;;
52268;SDS011;38224;50.950;4.100;2023-07-08T02:32:31;10.43;;;5.65;;
52268;SDS011;38224;50.950;4.100;2023-07-08T02:34:59;10.90;;;6.28;;
52268;SDS011;38224;50.950;4.100;2023-07-08T02:37:24;11.38;;;5.75;;
52268;SDS011;38224;50.950;4.100;2023-07-08T02:39:49;11.57;;;6.10;;
52268;SDS011;38224;50.950;4.100;2023-07-08T02:42:15;11.37;;;6.33;;
52268;SDS011;38224;50.950;4.100;2023-07-08T02:44:40;11.03;;;5.90;;
52268;SDS011;38224;50.950;4.100;2023-07-08T02:47:05;12.30;;;5.90;;
52268;SDS011;38224;50.950;4.100;2023-07-08T02:49:30;16.83;;;5.73;;
52268;SDS011;38224;50.950;4.100;2023-07-08T02:51:56;10.17;;;5.70;;
52268;SDS011;38224;50.950;4.100;2023-07-08T02:54:21;11.63;;;6.23;;
52268;SDS011;38224;50.950;4.100;2023-07-08T02:56:46;9.52;;;5.50;;
52268;SDS011;38224;50.950;4.100;2023-07-08T02:59:12;10.45;;;6.35;;
52268;SDS011;38224;50.950;4.100;2023-07-08T03:01:37;8.37;;;5.53;;
52268;SDS011;38224;50.950;4.100;2023-07-08T03:04:06;14.43;;;7.03;;
52268;SDS011;38224;50.950;4.100;2023-07-08T03:06:34;11.27;;;6.68;;
52268;SDS011;38224;50.950;4.100;2023-07-08T03:08:59;15.45;;;6.57;;
52268;SDS011;38224;50.950;4.100;2023-07-08T03:11:24;10.13;;;5.80;;
52268;SDS011;38224;50.950;4.100;2023-07-08T03:13:49;10.50;;;6.27;;
52268;SDS011;38224;50.950;4.100;2023-07-08T03:16:15;9.73;;;6.20;;
52268;SDS011;38224;50.950;4.100;2023-07-08T03:18:40;10.50;;;5.23;;
52268;SDS011;38224;50.950;4.100;2023-07-08T03:21:11;14.32;;;6.65;;
52268;SDS011;38224;50.950;4.100;2023-07-08T03:23:37;11.82;;;6.03;;
52268;SDS011;38224;50.950;4.100;2023-07-08T03:26:03;9.68;;;6.05;;
52268;SDS011;38224;50.950;4.100;2023-07-08T03:28:28;12.57;;;5.87;;
52268;SDS011;38224;50.950;4.100;2023-07-08T03:30:53;10.63;;;6.30;;
52268;SDS011;38224;50.950;4.100;2023-07-08T03:33:19;12.82;;;6.70;;
52268;SDS011;38224;50.950;4.100;2023-07-08T03:35:44;11.77;;;6.10;;
52268;SDS011;38224;50.950;4.100;2023-07-08T03:38:10;11.63;;;6.30;;
52268;SDS011;38224;50.950;4.100;2023-07-08T03:40:35;12.27;;;6.17;;
52268;SDS011;38224;50.950;4.100;2023-07-08T03:43:00;11.13;;;5.45;;
52268;SDS011;38224;50.950;4.100;2023-07-08T03:45:25;10.23;;;5.57;;
52268;SDS011;38224;50.950;4.100;2023-07-08T03:47:51;11.48;;;5.93;;
52268;SDS011;38224;50.950;4.100;2023-07-08T03:50:24;10.00;;;5.77;;
52268;SDS011;38224;50.950;4.100;2023-07-08T03:52:50;10.20;;;6.88;;
52268;SDS011;38224;50.950;4.100;2023-07-08T03:55:16;14.95;;;6.00;;
52268;SDS011;38224;50.950;4.100;2023-07-08T03:57:41;13.17;;;6.37;;
52268;SDS011;38224;50.950;4.100;2023-07-08T04:00:07;11.93;;;6.70;;
52268;SDS011;38224;50.950;4.100;2023-07-08T04:02:37;15.48;;;6.90;;
52268;SDS011;38224;50.950;4.100;2023-07-08T04:05:02;11.40;;;6.30;;
52268;SDS011;38224;50.950;4.100;2023-07-08T04:07:28;13.13;;;6.88;;
52268;SDS011;38224;50.950;4.100;2023-07-08T04:09:53;11.02;;;6.63;;
52268;SDS011;38224;50.950;4.100;2023-07-08T04:12:19;12.97;;;7.07;;
52268;SDS011;38224;50.950;4.100;2023-07-08T04:14:44;14.02;;;6.65;;
52268;SDS011;38224;50.950;4.100;2023-07-08T04:17:09;10.03;;;6.00;;
52268;SDS011;38224;50.950;4.100;2023-07-08T04:19:35;12.48;;;5.97;;
52268;SDS011;38224;50.950;4.100;2023-07-08T04:22:01;11.60;;;7.00;;
52268;SDS011;38224;50.950;4.100;2023-07-08T04:24:26;11.70;;;6.40;;
52268;SDS011;38224;50.950;4.100;2023-07-08T04:26:52;10.38;;;6.50;;
52268;SDS011;38224;50.950;4.100;2023-07-08T04:29:18;14.93;;;6.72;;
52268;SDS011;38224;50.950;4.100;2023-07-08T04:31:44;10.15;;;5.70;;
52268;SDS011;38224;50.950;4.100;2023-07-08T04:34:10;10.15;;;6.10;;
52268;SDS011;38224;50.950;4.100;2023-07-08T04:36:35;8.65;;;5.80;;
52268;SDS011;38224;50.950;4.100;2023-07-08T04:39:01;15.43;;;6.50;;
52268;SDS011;38224;50.950;4.100;2023-07-08T04:41:27;11.73;;;6.45;;
52268;SDS011;38224;50.950;4.100;2023-07-08T04:43:53;8.40;;;5.82;;
52268;SDS011;38224;50.950;4.100;2023-07-08T04:47:03;11.15;;;6.03;;
52268;SDS011;38224;50.950;4.100;2023-07-08T04:49:05;12.82;;;6.03;;
52268;SDS011;38224;50.950;4.100;2023-07-08T04:51:31;14.07;;;7.03;;
52268;SDS011;38224;50.950;4.100;2023-07-08T04:53:56;12.90;;;7.00;;
52268;SDS011;38224;50.950;4.100;2023-07-08T04:56:22;9.93;;;5.82;;
52268;SDS011;38224;50.950;4.100;2023-07-08T04:58:48;12.27;;;5.95;;
52268;SDS011;38224;50.950;4.100;2023-07-08T05:01:13;12.57;;;6.53;;
52268;SDS011;38224;50.950;4.100;2023-07-08T05:03:39;12.67;;;5.77;;
52268;SDS011;38224;50.950;4.100;2023-07-08T05:06:04;10.63;;;6.13;;
52268;SDS011;38224;50.950;4.100;2023-07-08T05:08:29;11.27;;;6.00;;
52268;SDS011;38224;50.950;4.100;2023-07-08T05:10:55;8.93;;;5.50;;
52268;SDS011;38224;50.950;4.100;2023-07-08T05:13:20;9.68;;;5.90;;
52268;SDS011;38224;50.950;4.100;2023-07-08T05:15:47;9.75;;;6.00;;
52268;SDS011;38224;50.950;4.100;2023-07-08T05:18:12;10.05;;;5.63;;
52268;SDS011;38224;50.950;4.100;2023-07-08T05:20:37;8.97;;;5.97;;
52268;SDS011;38224;50.950;4.100;2023-07-08T05:23:03;9.33;;;6.00;;
52268;SDS011;38224;50.950;4.100;2023-07-08T05:25:30;9.73;;;5.77;;
52268;SDS011;38224;50.950;4.100;2023-07-08T05:27:56;7.10;;;4.88;;
52268;SDS011;38224;50.950;4.100;2023-07-08T05:30:21;10.18;;;4.65;;
52268;SDS011;38224;50.950;4.100;2023-07-08T05:32:47;11.90;;;6.70;;
52268;SDS011;38224;50.950;4.100;2023-07-08T05:35:12;14.67;;;6.33;;
52268;SDS011;38224;50.950;4.100;2023-07-08T05:37:38;9.43;;;5.65;;
52268;SDS011;38224;50.950;4.100;2023-07-08T05:40:05;9.45;;;5.43;;
52268;SDS011;38224;50.950;4.100;2023-07-08T05:42:31;10.88;;;5.75;;
52268;SDS011;38224;50.950;4.100;2023-07-08T05:44:56;8.93;;;5.13;;
52268;SDS011;38224;50.950;4.100;2023-07-08T05:47:22;9.10;;;5.07;;
52268;SDS011;38224;50.950;4.100;2023-07-08T05:49:47;10.48;;;4.93;;
52268;SDS011;38224;50.950;4.100;2023-07-08T05:52:12;11.30;;;6.03;;
52268;SDS011;38224;50.950;4.100;2023-07-08T05:54:38;12.87;;;5.13;;
52268;SDS011;38224;50.950;4.100;2023-07-08T05:57:05;15.25;;;5.95;;
52268;SDS011;38224;50.950;4.100;2023-07-08T05:59:30;12.68;;;5.20;;
52268;SDS011;38224;50.950;4.100;2023-07-08T06:01:55;10.77;;;4.97;;
52268;SDS011;38224;50.950;4.100;2023-07-08T06:04:20;8.03;;;4.77;;
52268;SDS011;38224;50.950;4.100;2023-07-08T06:06:47;8.00;;;5.00;;
52268;SDS011;38224;50.950;4.100;2023-07-08T06:09:12;12.93;;;5.13;;
52268;SDS011;38224;50.950;4.100;2023-07-08T06:11:37;6.82;;;4.38;;
52268;SDS011;38224;50.950;4.100;2023-07-08T06:14:03;12.47;;;5.43;;
52268;SDS011;38224;50.950;4.100;2023-07-08T06:16:29;8.70;;;4.85;;
52268;SDS011;38224;50.950;4.100;2023-07-08T06:18:55;10.63;;;4.90;;
52268;SDS011;38224;50.950;4.100;2023-07-08T06:21:21;7.82;;;5.18;;
52268;SDS011;38224;50.950;4.100;2023-07-08T06:23:46;9.70;;;5.27;;
52268;SDS011;38224;50.950;4.100;2023-07-08T06:26:11;11.53;;;4.90;;
52268;SDS011;38224;50.950;4.100;2023-07-08T06:28:36;9.03;;;4.93;;
52268;SDS011;38224;50.950;4.100;2023-07-08T06:31:01;11.13;;;5.67;;
52268;SDS011;38224;50.950;4.100;2023-07-08T06:33:27;10.87;;;4.73;;
52268;SDS011;38224;50.950;4.100;2023-07-08T06:35:52;10.67;;;5.33;;
52268;SDS011;38224;50.950;4.100;2023-07-08T06:38:17;9.93;;;5.10;;
52268;SDS011;38224;50.950;4.100;2023-07-08T06:40:43;6.23;;;4.43;;
52268;SDS011;38224;50.950;4.100;2023-07-08T06:43:08;8.27;;;4.80;;
52268;SDS011;38224;50.950;4.100;2023-07-08T06:45:33;12.03;;;4.80;;
52268;SDS011;38224;50.950;4.100;2023-07-08T06:47:58;12.23;;;4.90;;
52268;SDS011;38224;50.950;4.100;2023-07-08T06:50:24;10.13;;;5.27;;
52268;SDS011;38224;50.950;4.100;2023-07-08T06:52:49;9.60;;;4.90;;
52268;SDS011;38224;50.950;4.100;2023-07-08T06:55:14;9.33;;;5.00;;
52268;SDS011;38224;50.950;4.100;2023-07-08T06:57:39;6.88;;;5.00;;
52268;SDS011;38224;50.950;4.100;2023-07-08T07:00:08;9.27;;;5.30;;
52268;SDS011;38224;50.950;4.100;2023-07-08T07:02:34;17.08;;;5.65;;
52268;SDS011;38224;50.950;4.100;2023-07-08T07:04:59;10.37;;;5.13;;
52268;SDS011;38224;50.950;4.100;2023-07-08T07:07:25;10.35;;;4.75;;
52268;SDS011;38224;50.950;4.100;2023-07-08T07:09:50;10.65;;;5.85;;
52268;SDS011;38224;50.950;4.100;2023-07-08T07:12:15;8.80;;;5.07;;
52268;SDS011;38224;50.950;4.100;2023-07-08T07:14:40;9.07;;;4.60;;
52268;SDS011;38224;50.950;4.100;2023-07-08T07:17:05;6.50;;;4.73;;
52268;SDS011;38224;50.950;4.100;2023-07-08T07:19:31;8.20;;;5.43;;
52268;SDS011;38224;50.950;4.100;2023-07-08T07:21:56;8.37;;;5.27;;
52268;SDS011;38224;50.950;4.100;2023-07-08T07:24:21;9.00;;;5.30;;
52268;SDS011;38224;50.950;4.100;2023-07-08T07:26:46;8.70;;;5.07;;
52268;SDS011;38224;50.950;4.100;2023-07-08T07:29:13;8.73;;;4.87;;
52268;SDS011;38224;50.950;4.100;2023-07-08T07:31:38;10.68;;;6.47;;
52268;SDS011;38224;50.950;4.100;2023-07-08T07:34:05;8.60;;;4.90;;
52268;SDS011;38224;50.950;4.100;2023-07-08T07:36:30;8.75;;;5.28;;
52268;SDS011;38224;50.950;4.100;2023-07-08T07:38:55;7.30;;;5.80;;
52268;SDS011;38224;50.950;4.100;2023-07-08T07:41:20;12.40;;;5.50;;
52268;SDS011;38224;50.950;4.100;2023-07-08T07:43:46;12.32;;;5.65;;
52268;SDS011;38224;50.950;4.100;2023-07-08T07:46:12;12.63;;;5.50;;
52268;SDS011;38224;50.950;4.100;2023-07-08T07:48:37;8.52;;;5.85;;
52268;SDS011;38224;50.950;4.100;2023-07-08T07:51:04;7.05;;;5.38;;
52268;SDS011;38224;50.950;4.100;2023-07-08T07:53:29;7.80;;;5.22;;
52268;SDS011;38224;50.950;4.100;2023-07-08T07:55:58;8.73;;;5.37;;
52268;SDS011;38224;50.950;4.100;2023-07-08T07:58:23;10.27;;;5.70;;
52268;SDS011;38224;50.950;4.100;2023-07-08T08:00:49;10.53;;;6.23;;
52268;SDS011;38224;50.950;4.100;2023-07-08T08:03:15;11.90;;;5.95;;
52268;SDS011;38224;50.950;4.100;2023-07-08T08:05:41;7.57;;;5.40;;
52268;SDS011;38224;50.950;4.100;2023-07-08T08:08:06;8.10;;;5.73;;
52268;SDS011;38224;50.950;4.100;2023-07-08T08:10:32;8.47;;;5.93;;
52268;SDS011;38224;50.950;4.100;2023-07-08T08:12:58;8.10;;;5.90;;
52268;SDS011;38224;50.950;4.100;2023-07-08T08:15:23;9.77;;;6.03;;
52268;SDS011;38224;50.950;4.100;2023-07-08T08:17:49;12.30;;;5.93;;
52268;SDS011;38224;50.950;4.100;2023-07-08T08:20:17;9.35;;;6.07;;
52268;SDS011;38224;50.950;4.100;2023-07-08T08:22:42;11.07;;;5.70;;
52268;SDS011;38224;50.950;4.100;2023-07-08T08:25:08;11.02;;;5.47;;
52268;SDS011;38224;50.950;4.100;2023-07-08T08:27:33;8.68;;;5.07;;
52268;SDS011;38224;50.950;4.100;2023-07-08T08:29:58;8.43;;;5.50;;
52268;SDS011;38224;50.950;4.100;2023-07-08T08:32:23;9.32;;;5.80;;
52268;SDS011;38224;50.950;4.100;2023-07-08T08:34:49;9.03;;;6.03;;
52268;SDS011;38224;50.950;4.100;2023-07-08T08:37:14;9.50;;;6.20;;
52268;SDS011;38224;50.950;4.100;2023-07-08T08:39:39;9.63;;;6.40;;
52268;SDS011;38224;50.950;4.100;2023-07-08T08:42:07;12.00;;;6.57;;
52268;SDS011;38224;50.950;4.100;2023-07-08T08:44:34;9.70;;;6.45;;
52268;SDS011;38224;50.950;4.100;2023-07-08T08:47:02;10.23;;;5.47;;
52268;SDS011;38224;50.950;4.100;2023-07-08T08:49:34;8.90;;;5.95;;
52268;SDS011;38224;50.950;4.100;2023-07-08T08:52:02;9.40;;;5.80;;
52268;SDS011;38224;50.950;4.100;2023-07-08T08:54:28;8.35;;;5.65;;
52268;SDS011;38224;50.950;4.100;2023-07-08T08:57:04;9.75;;;5.80;;
52268;SDS011;38224;50.950;4.100;2023-07-08T09:05:09;15.30;;;6.07;;
52268;SDS011;38224;50.950;4.100;2023-07-08T09:07:41;11.98;;;6.03;;
52268;SDS011;38224;50.950;4.100;2023-07-08T09:10:13;9.45;;;5.85;;
52268;SDS011;38224;50.950;4.100;2023-07-08T09:12:40;8.60;;;6.38;;
52268;SDS011;38224;50.950;4.100;2023-07-08T09:15:13;9.97;;;6.13;;
52268;SDS011;38224;50.950;4.100;2023-07-08T09:17:39;9.98;;;5.57;;
52268;SDS011;38224;50.950;4.100;2023-07-08T09:22:46;10.02;;;6.40;;
52268;SDS011;38224;50.950;4.100;2023-07-08T09:27:40;10.98;;;6.25;;
52268;SDS011;38224;50.950;4.100;2023-07-08T09:30:08;11.10;;;5.90;;
52268;SDS011;38224;50.950;4.100;2023-07-08T09:32:37;10.23;;;6.18;;
52268;SDS011;38224;50.950;4.100;2023-07-08T09:35:03;8.13;;;5.28;;
52268;SDS011;38224;50.950;4.100;2023-07-08T09:37:30;13.10;;;5.82;;
52268;SDS011;38224;50.950;4.100;2023-07-08T09:39:56;9.18;;;5.97;;
52268;SDS011;38224;50.950;4.100;2023-07-08T09:42:22;9.85;;;5.85;;
52268;SDS011;38224;50.950;4.100;2023-07-08T09:44:48;10.40;;;6.05;;
52268;SDS011;38224;50.950;4.100;2023-07-08T09:47:21;11.50;;;6.10;;
52268;SDS011;38224;50.950;4.100;2023-07-08T09:49:47;6.35;;;4.95;;
52268;SDS011;38224;50.950;4.100;2023-07-08T09:52:12;8.73;;;5.15;;
52268;SDS011;38224;50.950;4.100;2023-07-08T09:54:39;9.40;;;5.47;;
52268;SDS011;38224;50.950;4.100;2023-07-08T09:57:09;8.13;;;5.43;;
52268;SDS011;38224;50.950;4.100;2023-07-08T09:59:46;11.50;;;5.50;;
52268;SDS011;38224;50.950;4.100;2023-07-08T10:02:23;8.43;;;5.70;;
52268;SDS011;38224;50.950;4.100;2023-07-08T10:04:51;8.68;;;6.15;;
52268;SDS011;38224;50.950;4.100;2023-07-08T10:07:17;9.32;;;5.30;;
52268;SDS011;38224;50.950;4.100;2023-07-08T10:09:42;10.07;;;5.90;;
52268;SDS011;38224;50.950;4.100;2023-07-08T10:12:09;9.00;;;5.70;;
52268;SDS011;38224;50.950;4.100;2023-07-08T10:14:37;9.82;;;5.78;;
52268;SDS011;38224;50.950;4.100;2023-07-08T10:17:04;7.55;;;5.10;;
52268;SDS011;38224;50.950;4.100;2023-07-08T10:19:30;6.43;;;4.78;;
52268;SDS011;38224;50.950;4.100;2023-07-08T10:24:40;12.93;;;5.67;;
52268;SDS011;38224;50.950;4.100;2023-07-08T10:29:51;8.88;;;5.20;;
52268;SDS011;38224;50.950;4.100;2023-07-08T10:34:48;9.43;;;5.87;;
52268;SDS011;38224;50.950;4.100;2023-07-08T10:45:16;7.43;;;5.40;;
52268;SDS011;38224;50.950;4.100;2023-07-08T10:58:13;8.52;;;5.90;;
52268;SDS011;38224;50.950;4.100;2023-07-08T11:00:44;9.85;;;5.38;;
52268;SDS011;38224;50.950;4.100;2023-07-08T11:06:01;11.63;;;5.25;;
52268;SDS011;38224;50.950;4.100;2023-07-08T11:11:15;7.73;;;5.33;;
52268;SDS011;38224;50.950;4.100;2023-07-08T11:13:48;10.10;;;5.60;;
52268;SDS011;38224;50.950;4.100;2023-07-08T11:18:53;8.07;;;5.40;;
52268;SDS011;38224;50.950;4.100;2023-07-08T11:23:55;7.70;;;5.30;;
52268;SDS011;38224;50.950;4.100;2023-07-08T11:26:28;8.90;;;5.28;;
52268;SDS011;38224;50.950;4.100;2023-07-08T11:28:56;9.90;;;5.63;;
52268;SDS011;38224;50.950;4.100;2023-07-08T11:31:22;9.43;;;6.78;;
52268;SDS011;38224;50.950;4.100;2023-07-08T11:33:48;9.50;;;5.57;;
52268;SDS011;38224;50.950;4.100;2023-07-08T11:36:13;10.80;;;6.07;;
52268;SDS011;38224;50.950;4.100;2023-07-08T11:38:47;9.70;;;5.85;;
52268;SDS011;38224;50.950;4.100;2023-07-08T11:41:14;8.07;;;5.93;;
52268;SDS011;38224;50.950;4.100;2023-07-08T11:43:50;9.95;;;6.43;;
52268;SDS011;38224;50.950;4.100;2023-07-08T11:46:22;11.00;;;6.10;;
52268;SDS011;38224;50.950;4.100;2023-07-08T11:48:51;12.60;;;6.15;;
52268;SDS011;38224;50.950;4.100;2023-07-08T11:51:24;9.93;;;5.80;;
52268;SDS011;38224;50.950;4.100;2023-07-08T11:54:11;8.40;;;5.90;;
52268;SDS011;38224;50.950;4.100;2023-07-08T11:56:49;8.48;;;5.88;;
52268;SDS011;38224;50.950;4.100;2023-07-08T11:59:19;12.07;;;6.63;;
52268;SDS011;38224;50.950;4.100;2023-07-08T12:01:46;10.27;;;6.20;;
52268;SDS011;38224;50.950;4.100;2023-07-08T12:09:38;8.67;;;5.90;;
52268;SDS011;38224;50.950;4.100;2023-07-08T12:12:00;9.15;;;6.38;;
52268;SDS011;38224;50.950;4.100;2023-07-08T12:14:27;10.35;;;6.75;;
52268;SDS011;38224;50.950;4.100;2023-07-08T12:16:52;11.35;;;7.03;;
52268;SDS011;38224;50.950;4.100;2023-07-08T12:19:17;10.73;;;6.37;;
52268;SDS011;38224;50.950;4.100;2023-07-08T12:21:43;10.50;;;6.10;;
52268;SDS011;38224;50.950;4.100;2023-07-08T12:24:12;9.20;;;6.10;;
52268;SDS011;38224;50.950;4.100;2023-07-08T12:26:38;9.60;;;6.32;;
52268;SDS011;38224;50.950;4.100;2023-07-08T12:29:04;10.52;;;6.10;;
52268;SDS011;38224;50.950;4.100;2023-07-08T12:31:29;11.77;;;6.80;;
52268;SDS011;38224;50.950;4.100;2023-07-08T12:33:57;7.80;;;5.57;;
52268;SDS011;38224;50.950;4.100;2023-07-08T12:36:24;14.85;;;6.13;;
52268;SDS011;38224;50.950;4.100;2023-07-08T12:38:50;8.85;;;6.07;;
52268;SDS011;38224;50.950;4.100;2023-07-08T12:41:21;9.65;;;6.25;;
52268;SDS011;38224;50.950;4.100;2023-07-08T12:43:47;8.43;;;6.05;;
52268;SDS011;38224;50.950;4.100;2023-07-08T12:46:13;8.90;;;5.97;;
52268;SDS011;38224;50.950;4.100;2023-07-08T12:48:39;8.48;;;5.32;;
52268;SDS011;38224;50.950;4.100;2023-07-08T12:51:05;6.07;;;4.53;;
52268;SDS011;38224;50.950;4.100;2023-07-08T12:53:31;14.52;;;4.78;;
52268;SDS011;38224;50.950;4.100;2023-07-08T12:55:58;12.15;;;4.32;;
52268;SDS011;38224;50.950;4.100;2023-07-08T12:58:26;7.75;;;4.78;;
52268;SDS011;38224;50.950;4.100;2023-07-08T13:00:53;11.27;;;4.78;;
52268;SDS011;38224;50.950;4.100;2023-07-08T13:03:19;6.60;;;4.47;;
52268;SDS011;38224;50.950;4.100;2023-07-08T13:05:46;9.00;;;5.10;;
52268;SDS011;38224;50.950;4.100;2023-07-08T13:08:13;10.10;;;5.15;;
52268;SDS011;38224;50.950;4.100;2023-07-08T13:10:39;7.15;;;4.70;;
52268;SDS011;38224;50.950;4.100;2023-07-08T13:13:04;6.03;;;4.20;;
52268;SDS011;38224;50.950;4.100;2023-07-08T13:15:34;8.07;;;4.63;;
52268;SDS011;38224;50.950;4.100;2023-07-08T13:18:00;8.85;;;4.93;;
52268;SDS011;38224;50.950;4.100;2023-07-08T13:20:26;9.25;;;4.53;;
52268;SDS011;38224;50.950;4.100;2023-07-08T13:22:54;12.13;;;6.13;;
52268;SDS011;38224;50.950;4.100;2023-07-08T13:25:19;11.05;;;5.78;;
52268;SDS011;38224;50.950;4.100;2023-07-08T13:27:58;9.00;;;5.47;;
52268;SDS011;38224;50.950;4.100;2023-07-08T13:30:25;11.82;;;5.07;;
52268;SDS011;38224;50.950;4.100;2023-07-08T13:32:54;12.73;;;5.80;;
52268;SDS011;38224;50.950;4.100;2023-07-08T13:35:23;9.23;;;5.55;;
52268;SDS011;38224;50.950;4.100;2023-07-08T13:37:49;12.52;;;4.80;;
52268;SDS011;38224;50.950;4.100;2023-07-08T13:40:15;10.82;;;5.63;;
52268;SDS011;38224;50.950;4.100;2023-07-08T13:42:46;11.70;;;5.35;;
52268;SDS011;38224;50.950;4.100;2023-07-08T13:45:15;9.15;;;4.82;;
52268;SDS011;38224;50.950;4.100;2023-07-08T13:47:42;9.07;;;4.93;;
52268;SDS011;38224;50.950;4.100;2023-07-08T13:50:22;11.65;;;4.72;;
52268;SDS011;38224;50.950;4.100;2023-07-08T13:52:56;11.77;;;5.82;;
52268;SDS011;38224;50.950;4.100;2023-07-08T13:55:22;7.87;;;4.90;;
52268;SDS011;38224;50.950;4.100;2023-07-08T13:57:54;6.80;;;5.05;;
52268;SDS011;38224;50.950;4.100;2023-07-08T14:00:20;12.35;;;4.85;;
52268;SDS011;38224;50.950;4.100;2023-07-08T14:02:45;10.00;;;4.90;;
52268;SDS011;38224;50.950;4.100;2023-07-08T14:05:11;11.38;;;5.07;;
52268;SDS011;38224;50.950;4.100;2023-07-08T14:07:38;9.13;;;5.15;;
52268;SDS011;38224;50.950;4.100;2023-07-08T14:10:13;11.27;;;5.57;;
52268;SDS011;38224;50.950;4.100;2023-07-08T14:12:38;14.27;;;5.72;;
52268;SDS011;38224;50.950;4.100;2023-07-08T14:15:04;12.23;;;4.95;;
52268;SDS011;38224;50.950;4.100;2023-07-08T14:17:29;6.78;;;4.47;;
52268;SDS011;38224;50.950;4.100;2023-07-08T14:19:54;9.13;;;4.80;;
52268;SDS011;38224;50.950;4.100;2023-07-08T14:24:45;10.07;;;4.93;;
52268;SDS011;38224;50.950;4.100;2023-07-08T14:27:10;9.43;;;4.23;;
52268;SDS011;38224;50.950;4.100;2023-07-08T14:29:40;8.13;;;4.13;;
52268;SDS011;38224;50.950;4.100;2023-07-08T14:32:10;8.98;;;4.30;;
52268;SDS011;38224;50.950;4.100;2023-07-08T14:34:36;9.90;;;4.40;;
52268;SDS011;38224;50.950;4.100;2023-07-08T14:37:01;9.23;;;4.77;;
52268;SDS011;38224;50.950;4.100;2023-07-08T14:39:26;5.77;;;4.17;;
52268;SDS011;38224;50.950;4.100;2023-07-08T14:41:52;6.23;;;3.90;;
52268;SDS011;38224;50.950;4.100;2023-07-08T14:46:45;7.72;;;4.85;;
52268;SDS011;38224;50.950;4.100;2023-07-08T14:49:17;10.32;;;4.75;;
52268;SDS011;38224;50.950;4.100;2023-07-08T14:54:08;6.65;;;4.50;;
52268;SDS011;38224;50.950;4.100;2023-07-08T14:56:34;15.35;;;4.60;;
52268;SDS011;38224;50.950;4.100;2023-07-08T14:58:59;12.00;;;4.83;;
52268;SDS011;38224;50.950;4.100;2023-07-08T15:01:24;9.68;;;4.57;;
52268;SDS011;38224;50.950;4.100;2023-07-08T15:03:52;9.45;;;4.85;;
52268;SDS011;38224;50.950;4.100;2023-07-08T15:06:20;9.40;;;4.77;;
52268;SDS011;38224;50.950;4.100;2023-07-08T15:08:45;7.03;;;4.30;;
52268;SDS011;38224;50.950;4.100;2023-07-08T15:11:11;8.77;;;4.97;;
52268;SDS011;38224;50.950;4.100;2023-07-08T15:13:36;7.93;;;4.85;;
52268;SDS011;38224;50.950;4.100;2023-07-08T15:16:02;6.57;;;4.10;;
52268;SDS011;38224;50.950;4.100;2023-07-08T15:18:27;10.05;;;4.90;;
52268;SDS011;38224;50.950;4.100;2023-07-08T15:20:53;7.07;;;4.82;;
52268;SDS011;38224;50.950;4.100;2023-07-08T15:23:18;8.68;;;4.95;;
52268;SDS011;38224;50.950;4.100;2023-07-08T15:25:44;11.05;;;5.45;;
52268;SDS011;38224;50.950;4.100;2023-07-08T15:28:20;9.50;;;4.80;;
52268;SDS011;38224;50.950;4.100;2023-07-08T15:30:49;10.40;;;5.20;;
52268;SDS011;38224;50.950;4.100;2023-07-08T15:33:15;7.32;;;4.43;;
52268;SDS011;38224;50.950;4.100;2023-07-08T15:35:40;8.90;;;5.00;;
52268;SDS011;38224;50.950;4.100;2023-07-08T15:38:07;8.05;;;4.90;;
52268;SDS011;38224;50.950;4.100;2023-07-08T15:40:32;11.97;;;4.90;;